Time;durP1;ratioP1;P1;durP2;ratioP2;P2;SDS_P1;SDS_P2;PMS_P1;PMS_P2;Temp;Humidity;BMP_temperature;BMP_pressure;BME280_temperature;BME280_humidity;BME280_pressure;Samples;Min_cycle;Max_cycle;Signal;HPM_P1;HPM_P2
2022/09/30 00:01:42;;;;;;;13.73;10.40;;;;;;;16.21;100.00;95374.84;5109212;27;20072;-46
2022/09/30 00:04:14;;;;;;;11.13;9.63;;;;;;;16.32;100.00;95384.06;5101828;27;20079;-49
2022/09/30 00:06:43;;;;;;;11.40;9.45;;;;;;;16.66;100.00;95382.97;5101292;28;20462;-45
2022/09/30 00:09:12;;;;;;;12.05;10.18;;;;;;;17.26;100.00;95380.09;5100334;27;20083;-56
2022/09/30 00:11:41;;;;;;;12.02;9.07;;;;;;;17.13;100.00;95383.63;5103159;27;20071;-52
2022/09/30 00:14:14;;;;;;;11.33;9.77;;;;;;;17.25;100.00;95381.13;5109546;27;20387;-48
2022/09/30 00:16:45;;;;;;;11.30;9.95;;;;;;;17.40;100.00;95380.84;5104547;27;20522;-56
2022/09/30 00:19:14;;;;;;;11.63;9.48;;;;;;;17.32;100.00;95381.91;5109406;27;20125;-50
2022/09/30 00:21:42;;;;;;;11.90;9.68;;;;;;;17.12;100.00;95390.00;5101511;27;20469;-47
2022/09/30 00:24:11;;;;;;;11.52;9.90;;;;;;;16.55;100.00;95391.56;5107109;27;20079;-54
2022/09/30 00:26:40;;;;;;;12.57;8.68;;;;;;;17.52;100.00;95392.47;5106116;27;20517;-49
2022/09/30 00:29:09;;;;;;;12.77;9.55;;;;;;;17.88;100.00;95391.03;5108495;27;20072;-51
2022/09/30 00:31:37;;;;;;;14.98;9.93;;;;;;;17.89;100.00;95398.78;5099991;27;20079;-49
2022/09/30 00:34:07;;;;;;;17.27;9.10;;;;;;;18.00;100.00;95392.78;5105937;27;20075;-50
2022/09/30 00:36:40;;;;;;;21.38;9.25;;;;;;;17.65;100.00;95388.88;5105514;27;20099;-49
2022/09/30 00:39:09;;;;;;;23.98;9.40;;;;;;;17.49;100.00;95392.91;5102030;27;20090;-55
2022/09/30 00:41:38;;;;;;;12.77;8.87;;;;;;;17.03;100.00;95397.41;5099070;27;20079;-53
2022/09/30 00:44:44;;;;;;;14.80;9.10;;;;;;;17.15;100.00;95394.91;5103547;27;20508;-52
2022/09/30 00:47:41;;;;;;;19.33;8.68;;;;;;;17.44;100.00;95390.03;5100465;28;20088;-49
2022/09/30 00:50:20;;;;;;;13.15;8.90;;;;;;;17.66;100.00;95391.34;5098041;27;20088;-46
2022/09/30 00:52:53;;;;;;;15.57;9.05;;;;;;;17.29;100.00;95387.66;5101843;27;20066;-52
2022/09/30 00:55:30;;;;;;;17.13;9.02;;;;;;;16.85;100.00;95397.25;5103417;27;20087;-51
2022/09/30 00:57:59;;;;;;;16.20;9.88;;;;;;;16.88;100.00;95388.84;5104747;27;20078;-48
2022/09/30 01:00:27;;;;;;;14.05;9.40;;;;;;;17.05;100.00;95392.69;5103535;27;20071;-47
2022/09/30 01:02:56;;;;;;;15.02;9.95;;;;;;;17.02;100.00;95395.75;5105193;27;20090;-49
2022/09/30 01:05:26;;;;;;;11.52;9.55;;;;;;;17.40;100.00;95388.84;5108005;27;20075;-47
2022/09/30 01:07:56;;;;;;;13.77;10.20;;;;;;;16.70;100.00;95405.47;5081921;28;20071;-46
2022/09/30 01:10:24;;;;;;;11.68;9.73;;;;;;;16.29;100.00;95405.75;5104991;27;20082;-47
2022/09/30 01:12:53;;;;;;;13.70;10.02;;;;;;;16.45;100.00;95418.63;5104461;27;20082;-51
2022/09/30 01:15:25;;;;;;;11.98;9.85;;;;;;;16.91;100.00;95420.41;5090438;27;20136;-52
2022/09/30 01:17:59;;;;;;;14.07;10.30;;;;;;;16.76;100.00;95433.97;5097844;28;20493;-50
2022/09/30 01:20:49;;;;;;;13.25;10.15;;;;;;;17.44;100.00;95422.84;5099776;28;20083;-52
2022/09/30 01:23:34;;;;;;;13.15;10.02;;;;;;;17.06;100.00;95426.28;5107834;27;20100;-51
2022/09/30 01:26:37;;;;;;;14.10;10.82;;;;;;;16.73;100.00;95429.00;5099807;27;20114;-48
2022/09/30 01:29:34;;;;;;;17.38;10.52;;;;;;;16.96;100.00;95419.75;5086998;28;20075;-49
2022/09/30 01:32:10;;;;;;;11.60;9.70;;;;;;;16.62;100.00;95427.00;5101883;27;20067;-54
2022/09/30 01:34:45;;;;;;;11.82;10.40;;;;;;;16.32;100.00;95432.75;5092998;28;20525;-50
2022/09/30 01:37:20;;;;;;;13.77;10.32;;;;;;;16.45;100.00;95444.41;5092882;28;20063;-50
2022/09/30 01:39:53;;;;;;;16.10;10.73;;;;;;;17.17;100.00;95432.81;5100558;27;20509;-48
2022/09/30 01:42:27;;;;;;;12.90;10.60;;;;;;;17.49;100.00;95425.69;5107601;27;20081;-51
2022/09/30 01:45:02;;;;;;;15.38;10.02;;;;;;;17.38;100.00;95429.03;5085399;28;20079;-52
2022/09/30 01:47:36;;;;;;;13.60;9.63;;;;;;;17.39;100.00;95437.84;5104328;28;20101;-50
2022/09/30 01:50:09;;;;;;;16.42;9.85;;;;;;;17.21;100.00;95447.34;5098945;28;20116;-51
2022/09/30 01:52:41;;;;;;;21.90;10.45;;;;;;;17.35;100.00;95441.97;5102829;27;20086;-47
2022/09/30 01:55:14;;;;;;;20.25;9.82;;;;;;;16.92;100.00;95445.97;5098608;28;20068;-51
2022/09/30 01:57:48;;;;;;;20.27;9.57;;;;;;;16.87;100.00;95459.13;5095972;28;20079;-53
2022/09/30 02:00:16;;;;;;;14.10;9.63;;;;;;;17.24;100.00;95452.25;5105348;28;20532;-54
2022/09/30 02:02:49;;;;;;;15.23;10.25;;;;;;;16.90;100.00;95461.38;5096123;28;20087;-51
2022/09/30 02:05:20;;;;;;;14.25;10.25;;;;;;;17.08;100.00;95450.88;5104970;28;20083;-50
2022/09/30 02:07:53;;;;;;;16.75;10.90;;;;;;;17.58;100.00;95449.44;5101422;28;20556;-53
2022/09/30 02:10:24;;;;;;;14.20;10.82;;;;;;;17.56;100.00;95441.66;5089660;28;20067;-51
2022/09/30 02:12:56;;;;;;;12.07;10.77;;;;;;;17.40;100.00;95437.63;5101881;28;20078;-47
2022/09/30 02:15:28;;;;;;;14.68;10.43;;;;;;;16.40;100.00;95438.88;5100395;28;20090;-47
2022/09/30 02:18:01;;;;;;;13.60;10.75;;;;;;;16.05;100.00;95439.09;5104581;28;20066;-48
2022/09/30 02:20:31;;;;;;;17.50;11.23;;;;;;;16.48;100.00;95442.16;5102856;28;20146;-53
2022/09/30 02:23:03;;;;;;;17.13;11.88;;;;;;;16.44;100.00;95443.56;5107232;28;20078;-52
2022/09/30 02:25:35;;;;;;;17.75;12.25;;;;;;;16.84;100.00;95449.69;5101394;28;20078;-56
2022/09/30 02:28:07;;;;;;;17.60;12.38;;;;;;;16.73;100.00;95442.31;5105375;28;20509;-54
2022/09/30 02:30:37;;;;;;;18.27;12.18;;;;;;;16.93;100.00;95439.66;5104094;28;20090;-53
2022/09/30 02:33:10;;;;;;;16.73;12.80;;;;;;;16.09;100.00;95442.97;5100990;27;20079;-47
2022/09/30 02:35:43;;;;;;;17.35;12.40;;;;;;;15.92;100.00;95447.06;5099982;27;20075;-51
2022/09/30 02:38:15;;;;;;;18.98;13.10;;;;;;;15.69;100.00;95437.63;5102800;27;20083;-51
2022/09/30 02:40:48;;;;;;;15.77;12.40;;;;;;;15.42;100.00;95445.50;5110051;27;20574;-46
2022/09/30 02:43:19;;;;;;;17.08;13.10;;;;;;;15.93;100.00;95443.38;5095401;28;20087;-51
2022/09/30 02:45:51;;;;;;;17.10;13.25;;;;;;;15.83;100.00;95457.88;5103853;27;20094;-49
2022/09/30 02:48:27;;;;;;;19.55;13.63;;;;;;;16.01;100.00;95461.81;5103703;27;20078;-47
2022/09/30 02:51:02;;;;;;;19.48;14.10;;;;;;;16.26;100.00;95443.41;5097676;28;20079;-53
2022/09/30 02:53:36;;;;;;;17.50;13.80;;;;;;;16.20;100.00;95437.03;5103726;27;20522;-55
2022/09/30 02:56:12;;;;;;;15.93;13.45;;;;;;;16.68;100.00;95443.97;5102046;27;20091;-50
2022/09/30 02:58:42;;;;;;;17.98;14.07;;;;;;;16.68;100.00;95443.97;5079956;28;20478;-47
2022/09/30 03:01:12;;;;;;;18.80;14.65;;;;;;;16.37;100.00;95442.78;5093617;28;20082;-51
2022/09/30 03:03:44;;;;;;;19.15;14.77;;;;;;;16.90;100.00;95444.59;5094633;27;20746;-56
2022/09/30 03:06:13;;;;;;;19.77;14.93;;;;;;;16.80;100.00;95451.16;5095361;27;20094;-47
2022/09/30 03:08:42;;;;;;;20.98;15.30;;;;;;;17.00;100.00;95434.31;5101748;27;20075;-47
2022/09/30 03:11:13;;;;;;;21.35;14.48;;;;;;;17.05;100.00;95437.97;5096252;28;20087;-56
2022/09/30 03:14:37;;;;;;;20.83;14.02;;;;;;;17.28;100.00;95434.00;5104304;27;20076;-54
2022/09/30 03:17:18;;;;;;;19.40;14.65;;;;;;;16.99;100.00;95445.97;5107441;27;20087;-47
2022/09/30 03:19:51;;;;;;;;;;;;;;;17.06;100.00;95449.44;5110270;27;20079;-48
2022/09/30 03:22:34;;;;;;;19.75;13.65;;;;;;;17.23;100.00;95450.59;5113045;27;19959;-47
2022/09/30 03:25:18;;;;;;;19.92;13.52;;;;;;;17.15;100.00;95453.50;5106935;27;20093;-52
2022/09/30 03:27:54;;;;;;;17.45;12.90;;;;;;;17.21;100.00;95450.00;5107057;27;20458;-53
2022/09/30 03:30:25;;;;;;;15.60;12.00;;;;;;;17.10;100.00;95458.63;5103672;27;20084;-56
2022/09/30 03:33:05;;;;;;;16.35;12.52;;;;;;;17.18;100.00;95470.94;5101701;27;20549;-48
2022/09/30 03:35:43;;;;;;;24.90;12.00;;;;;;;16.77;100.00;95478.19;5096454;28;20084;-49
2022/09/30 03:38:15;;;;;;;18.10;12.10;;;;;;;16.22;100.00;95490.88;5106996;27;20450;-53
2022/09/30 03:40:48;;;;;;;18.83;12.18;;;;;;;15.83;100.00;95497.78;5106647;27;20087;-47
2022/09/30 03:43:20;;;;;;;14.15;11.68;;;;;;;15.53;100.00;95501.72;5102754;27;20479;-49
2022/09/30 03:45:53;;;;;;;15.55;12.80;;;;;;;15.79;100.00;95496.50;5106757;27;20078;-46
2022/09/30 03:48:22;;;;;;;21.13;12.63;;;;;;;15.84;100.00;95502.06;5105217;27;20079;-48
2022/09/30 03:50:53;;;;;;;17.27;12.52;;;;;;;16.29;100.00;95491.69;5108893;27;20094;-53
2022/09/30 03:53:21;;;;;;;18.95;13.10;;;;;;;16.60;100.00;95491.06;5105651;28;20763;-50
2022/09/30 03:55:52;;;;;;;17.77;12.68;;;;;;;16.52;100.00;95495.81;5101728;27;20083;-51
2022/09/30 03:58:23;;;;;;;16.75;12.80;;;;;;;16.40;100.00;95500.91;5100102;27;20082;-53
2022/09/30 04:00:52;;;;;;;19.55;14.43;;;;;;;16.24;100.00;95507.47;5101703;27;20075;-51
2022/09/30 04:03:22;;;;;;;21.60;14.60;;;;;;;16.70;100.00;95505.81;5106543;27;20479;-51
2022/09/30 04:05:52;;;;;;;20.00;14.77;;;;;;;16.55;100.00;95506.00;5101659;27;20076;-48
2022/09/30 04:08:21;;;;;;;20.70;14.03;;;;;;;16.67;100.00;95516.88;5094323;28;20055;-51
2022/09/30 04:10:49;;;;;;;18.38;14.70;;;;;;;17.02;100.00;95512.13;5100292;27;20094;-50
2022/09/30 04:13:17;;;;;;;19.20;13.98;;;;;;;17.19;100.00;95517.84;5100303;27;20083;-46
2022/09/30 04:15:53;;;;;;;19.70;13.82;;;;;;;17.36;100.00;95513.69;5094877;27;20532;-53
2022/09/30 04:18:22;;;;;;;20.25;13.63;;;;;;;17.36;100.00;95518.22;5102575;27;20178;-49
2022/09/30 04:20:52;;;;;;;17.48;13.77;;;;;;;17.44;100.00;95515.31;5103296;27;20079;-45
2022/09/30 04:23:20;;;;;;;18.88;13.00;;;;;;;17.12;100.00;95531.19;5106419;27;20600;-49
2022/09/30 04:25:52;;;;;;;15.43;12.20;;;;;;;17.36;100.00;95528.88;5104475;28;20079;-46
2022/09/30 04:28:21;;;;;;;16.70;12.85;;;;;;;17.41;100.00;95523.72;5107497;27;20075;-54
2022/09/30 04:30:49;;;;;;;18.92;12.63;;;;;;;17.46;100.00;95531.91;5110482;27;20079;-49
2022/09/30 04:33:17;;;;;;;19.17;13.43;;;;;;;17.39;100.00;95528.44;5107996;27;20075;-53
2022/09/30 04:35:45;;;;;;;17.92;13.10;;;;;;;17.40;100.00;95530.91;5126847;27;20122;-51
2022/09/30 04:38:15;;;;;;;21.52;13.20;;;;;;;17.15;100.00;95533.44;5102520;27;20094;-48
2022/09/30 04:40:44;;;;;;;15.77;12.55;;;;;;;16.88;100.00;95532.66;5101249;28;20076;-52
2022/09/30 04:43:13;;;;;;;20.80;12.60;;;;;;;16.96;100.00;95536.94;5102456;27;20477;-48
2022/09/30 04:45:44;;;;;;;21.08;13.90;;;;;;;16.94;100.00;95541.66;5103823;27;20206;-52
2022/09/30 04:48:12;;;;;;;19.15;12.80;;;;;;;16.61;100.00;95540.59;5108199;27;20067;-49
2022/09/30 04:50:41;;;;;;;17.42;13.52;;;;;;;16.81;100.00;95545.16;5106873;27;20480;-49
2022/09/30 04:53:13;;;;;;;21.83;14.35;;;;;;;16.88;100.00;95542.50;5096571;27;20093;-52
2022/09/30 04:55:43;;;;;;;19.52;13.98;;;;;;;16.75;100.00;95540.66;5101376;27;20461;-50
2022/09/30 04:58:12;;;;;;;20.05;14.25;;;;;;;16.28;100.00;95556.56;5102919;27;20079;-45
2022/09/30 05:00:40;;;;;;;18.98;14.30;;;;;;;16.16;100.00;95555.50;5098600;28;20094;-55
2022/09/30 05:03:09;;;;;;;23.30;14.57;;;;;;;16.19;100.00;95554.28;5101842;27;20054;-49
2022/09/30 05:05:38;;;;;;;18.58;14.60;;;;;;;16.26;100.00;95553.28;5110963;27;20067;-49
2022/09/30 05:08:06;;;;;;;22.17;14.52;;;;;;;16.49;100.00;95557.41;5110094;27;20552;-50
2022/09/30 05:10:34;;;;;;;18.83;14.20;;;;;;;16.40;100.00;95562.09;5094171;27;20086;-50
2022/09/30 05:13:04;;;;;;;19.65;14.60;;;;;;;16.50;100.00;95551.06;5094741;27;20538;-55
2022/09/30 05:15:34;;;;;;;25.33;16.33;;;;;;;16.09;100.00;95565.31;5102020;27;20079;-52
2022/09/30 05:18:03;;;;;;;25.65;15.60;;;;;;;15.54;100.00;95578.56;5105293;27;20098;-44
2022/09/30 05:20:32;;;;;;;22.48;14.57;;;;;;;16.01;100.00;95574.31;5102807;28;20485;-50
2022/09/30 05:23:00;;;;;;;19.40;14.88;;;;;;;15.78;100.00;95579.94;5099379;27;20094;-52
2022/09/30 05:25:29;;;;;;;18.02;14.18;;;;;;;15.71;100.00;95575.63;5096805;27;20068;-45
2022/09/30 05:27:57;;;;;;;22.17;13.55;;;;;;;14.91;100.00;95575.97;5098158;27;20078;-47
2022/09/30 05:30:27;;;;;;;22.75;13.70;;;;;;;14.83;100.00;95570.81;5112717;27;20083;-50
2022/09/30 05:32:56;;;;;;;19.00;13.32;;;;;;;14.95;100.00;95581.69;5116246;27;20094;-50
2022/09/30 05:35:24;;;;;;;17.08;12.95;;;;;;;15.66;100.00;95587.66;5117404;27;20547;-51
2022/09/30 05:37:53;;;;;;;18.75;13.95;;;;;;;15.83;100.00;95587.34;5115248;27;20059;-48
2022/09/30 05:40:21;;;;;;;22.30;14.80;;;;;;;15.80;100.00;95595.72;5099635;27;20079;-49
2022/09/30 05:42:50;;;;;;;19.33;13.82;;;;;;;15.74;100.00;95601.81;5098879;28;20318;-46
2022/09/30 05:45:18;;;;;;;19.60;13.80;;;;;;;16.09;100.00;95597.22;5113925;27;20075;-48
2022/09/30 05:47:52;;;;;;;17.92;12.68;;;;;;;16.38;100.00;95596.09;5113333;27;20067;-51
2022/09/30 05:50:22;;;;;;;20.92;13.02;;;;;;;16.57;100.00;95602.44;5103669;28;20525;-52
2022/09/30 05:52:51;;;;;;;21.77;13.50;;;;;;;16.31;100.00;95603.22;5118877;27;20078;-49
2022/09/30 05:55:21;;;;;;;17.27;12.00;;;;;;;16.51;100.00;95601.41;5119529;27;20075;-52
2022/09/30 05:57:50;;;;;;;17.75;12.70;;;;;;;16.02;100.00;95599.06;5123557;27;20082;-54
2022/09/30 06:00:19;;;;;;;17.83;13.70;;;;;;;16.47;100.00;95605.50;5113956;28;20075;-44
2022/09/30 06:02:52;;;;;;;20.80;13.45;;;;;;;16.53;100.00;95607.34;5122397;28;20079;-53
2022/09/30 06:05:22;;;;;;;15.45;12.55;;;;;;;16.67;100.00;95610.03;5120438;28;20079;-48
2022/09/30 06:07:50;;;;;;;17.92;13.30;;;;;;;16.64;100.00;95619.25;5116507;28;20086;-52
2022/09/30 06:10:19;;;;;;;17.13;13.07;;;;;;;16.51;100.00;95611.25;5120322;27;20079;-50
2022/09/30 06:12:47;;;;;;;18.38;13.38;;;;;;;16.79;100.00;95608.44;5116200;27;20082;-48
2022/09/30 06:15:15;;;;;;;17.33;13.45;;;;;;;16.90;100.00;95610.50;5123288;27;20086;-45
2022/09/30 06:17:45;;;;;;;18.52;13.73;;;;;;;16.81;100.00;95617.84;5117471;27;20563;-46
2022/09/30 06:20:15;;;;;;;19.27;13.63;;;;;;;17.05;100.00;95613.75;5113641;27;20082;-46
2022/09/30 06:22:44;;;;;;;19.33;13.38;;;;;;;16.92;100.00;95627.06;5120696;27;20476;-47
2022/09/30 06:25:13;;;;;;;17.63;14.38;;;;;;;16.96;100.00;95620.31;5126594;27;20093;-51
2022/09/30 06:27:44;;;;;;;18.30;13.77;;;;;;;17.09;100.00;95624.81;5097436;28;20078;-54
2022/09/30 06:30:13;;;;;;;20.10;13.40;;;;;;;17.11;100.00;95635.28;5113050;28;20075;-46
2022/09/30 06:32:41;;;;;;;16.30;12.65;;;;;;;17.27;100.00;95629.53;5106504;27;20143;-53
2022/09/30 06:35:10;;;;;;;18.17;12.55;;;;;;;17.37;100.00;95635.25;5114063;27;20075;-53
2022/09/30 06:37:40;;;;;;;15.73;12.80;;;;;;;17.43;100.00;95633.59;5123028;27;20083;-48
2022/09/30 06:40:09;;;;;;;14.85;12.35;;;;;;;17.44;100.00;95643.25;5118492;27;20075;-50
2022/09/30 06:42:38;;;;;;;16.25;11.73;;;;;;;17.57;100.00;95637.88;5125344;27;20552;-51
2022/09/30 06:45:08;;;;;;;20.08;12.70;;;;;;;17.54;100.00;95649.78;5125013;27;20090;-52
2022/09/30 06:47:37;;;;;;;;;;;;;;;17.15;100.00;95653.31;5118300;27;20078;-47
2022/09/30 06:50:07;;;;;;;16.58;12.30;;;;;;;17.44;100.00;95651.22;5123002;27;19974;-49
2022/09/30 06:52:50;;;;;;;16.50;13.02;;;;;;;17.99;100.00;95652.56;5122418;27;20087;-52
2022/09/30 06:55:18;;;;;;;21.38;13.10;;;;;;;18.42;100.00;95657.31;5104161;28;20074;-46
2022/09/30 06:57:47;;;;;;;18.08;13.63;;;;;;;18.41;100.00;95657.50;5122894;27;20086;-52
2022/09/30 07:00:16;;;;;;;19.58;14.55;;;;;;;18.52;100.00;95658.72;5130913;27;20090;-46
2022/09/30 07:02:44;;;;;;;14.02;11.95;;;;;;;18.79;100.00;95657.56;5116253;27;20075;-50
2022/09/30 07:05:14;;;;;;;13.50;11.50;;;;;;;18.26;100.00;95671.13;5119175;27;20106;-45
2022/09/30 07:07:42;;;;;;;15.80;11.82;;;;;;;19.21;100.00;95669.38;5123122;27;20066;-45
2022/09/30 07:10:12;;;;;;;13.77;11.35;;;;;;;19.14;100.00;95668.59;5122754;27;20094;-49
2022/09/30 07:12:41;;;;;;;13.07;10.50;;;;;;;19.29;100.00;95670.94;5120862;27;20079;-47
2022/09/30 07:15:10;;;;;;;13.57;11.15;;;;;;;19.29;100.00;95675.47;5121041;27;20461;-48
2022/09/30 07:17:41;;;;;;;12.68;11.13;;;;;;;18.58;100.00;95676.53;5119816;27;20071;-52
2022/09/30 07:20:09;;;;;;;13.30;10.35;;;;;;;18.78;100.00;95676.44;5115961;27;20054;-49
2022/09/30 07:22:38;;;;;;;12.93;10.15;;;;;;;19.19;100.00;95668.75;5105848;27;20062;-49
2022/09/30 07:25:08;;;;;;;11.27;9.60;;;;;;;19.92;100.00;95673.47;5126462;27;20514;-49
2022/09/30 07:27:38;;;;;;;12.45;10.20;;;;;;;19.24;100.00;95678.81;5118847;27;20083;-48
2022/09/30 07:30:07;;;;;;;12.13;9.75;;;;;;;19.64;100.00;95673.13;5106186;27;20082;-53
2022/09/30 07:32:45;;;;;;;12.35;9.75;;;;;;;19.68;100.00;95677.84;5126196;27;20529;-52
2022/09/30 07:35:13;;;;;;;12.88;9.55;;;;;;;20.43;100.00;95679.44;5116604;27;20098;-50
2022/09/30 07:37:42;;;;;;;10.80;9.27;;;;;;;20.49;100.00;95675.88;5119492;27;20070;-46
2022/09/30 07:40:11;;;;;;;10.82;9.43;;;;;;;20.77;100.00;95677.19;5113566;27;20079;-47
2022/09/30 07:42:44;;;;;;;12.05;9.40;;;;;;;20.21;100.00;95683.66;5125794;27;20078;-53
2022/09/30 07:45:14;;;;;;;9.80;8.80;;;;;;;20.64;100.00;95680.84;5122285;27;20071;-47
2022/09/30 07:47:43;;;;;;;12.68;9.20;;;;;;;20.03;100.00;95689.81;5115261;27;20074;-46
2022/09/30 07:50:14;;;;;;;9.25;8.07;;;;;;;20.27;100.00;95686.25;5111825;27;20095;-46
2022/09/30 07:52:42;;;;;;;9.57;8.50;;;;;;;20.63;100.00;95685.41;5121560;27;20072;-49
2022/09/30 07:55:11;;;;;;;12.68;8.82;;;;;;;20.63;97.61;95693.44;5131459;27;20504;-53
2022/09/30 07:57:40;;;;;;;10.80;8.27;;;;;;;20.71;96.90;95694.16;5124270;27;20073;-47
2022/09/30 08:00:11;;;;;;;9.48;8.18;;;;;;;21.17;92.96;95687.31;5124931;27;20066;-46
2022/09/30 08:02:59;;;;;;;9.43;8.32;;;;;;;21.29;88.17;95693.50;5110572;27;20518;-48
2022/09/30 08:05:28;;;;;;;10.02;7.78;;;;;;;21.26;91.36;95689.41;5121406;27;20525;-47
2022/09/30 08:07:56;;;;;;;9.65;8.23;;;;;;;20.90;94.17;95687.72;5114265;27;20439;-53
2022/09/30 08:10:24;;;;;;;9.05;7.45;;;;;;;20.97;90.54;95695.66;5115272;27;20083;-53
2022/09/30 08:12:54;;;;;;;9.38;7.50;;;;;;;21.10;91.84;95692.78;5093285;28;20075;-48
2022/09/30 08:15:27;;;;;;;8.80;7.88;;;;;;;20.71;95.07;95691.47;5110564;28;20067;-49
2022/09/30 08:17:59;;;;;;;10.57;8.13;;;;;;;20.52;100.00;95704.91;5092495;28;20102;-49
2022/09/30 08:20:27;;;;;;;9.93;8.77;;;;;;;20.42;100.00;95703.78;5113094;27;20083;-53
2022/09/30 08:22:56;;;;;;;8.88;7.85;;;;;;;20.75;99.42;95706.91;5119338;27;20090;-51
2022/09/30 08:25:26;;;;;;;8.95;7.80;;;;;;;20.96;92.33;95713.63;5125965;27;20075;-45
2022/09/30 08:27:56;;;;;;;9.15;7.90;;;;;;;21.12;98.02;95719.34;5113027;27;20080;-49
2022/09/30 08:30:24;;;;;;;9.67;8.30;;;;;;;20.51;94.13;95727.41;5123514;27;20099;-52
2022/09/30 08:32:52;;;;;;;9.38;7.70;;;;;;;20.44;91.20;95720.44;5124931;27;20540;-50
2022/09/30 08:35:21;;;;;;;7.97;6.82;;;;;;;20.97;85.11;95709.06;5113562;27;20083;-50
2022/09/30 08:37:50;;;;;;;8.15;7.30;;;;;;;21.24;84.11;95710.31;5115099;27;20074;-46
2022/09/30 08:40:21;;;;;;;10.23;7.40;;;;;;;21.76;79.37;95712.38;5117794;27;20066;-54
2022/09/30 08:43:03;;;;;;;7.45;6.63;;;;;;;21.73;75.22;95715.53;5112688;27;20474;-49
2022/09/30 08:45:37;;;;;;;7.80;7.00;;;;;;;21.70;73.47;95724.03;5110391;27;20470;-54
2022/09/30 08:48:16;;;;;;;8.43;7.53;;;;;;;22.15;74.15;95726.16;5117835;27;20079;-52
2022/09/30 08:50:52;;;;;;;8.00;7.20;;;;;;;22.08;72.30;95723.56;5114186;27;20082;-53
2022/09/30 08:53:23;;;;;;;8.63;7.72;;;;;;;22.49;68.95;95730.66;5121969;27;20538;-47
2022/09/30 08:55:53;;;;;;;8.38;7.47;;;;;;;22.68;65.32;95733.19;5113422;27;20082;-51
2022/09/30 08:58:26;;;;;;;8.95;8.05;;;;;;;23.24;62.02;95741.53;5122554;27;20083;-54
2022/09/30 09:00:58;;;;;;;8.57;7.68;;;;;;;23.19;63.69;95739.53;5125150;27;20089;-51
2022/09/30 09:03:29;;;;;;;10.07;7.35;;;;;;;23.20;62.22;95741.19;5116240;27;20079;-48
2022/09/30 09:06:08;;;;;;;8.27;6.68;;;;;;;22.19;64.45;95746.94;5112557;27;20075;-51
2022/09/30 09:08:50;;;;;;;9.35;7.15;;;;;;;22.96;64.38;95749.34;5099473;27;20075;-49
2022/09/30 09:11:26;;;;;;;7.53;6.70;;;;;;;23.07;62.98;95753.06;5116468;27;20190;-53
2022/09/30 09:14:00;;;;;;;8.07;7.07;;;;;;;22.93;63.90;95744.47;5118392;27;20086;-50
2022/09/30 09:16:31;;;;;;;7.22;6.43;;;;;;;22.05;69.40;95751.69;5129105;27;20085;-53
2022/09/30 09:19:04;;;;;;;7.25;6.20;;;;;;;22.49;66.79;95757.53;5112062;27;20132;-56
2022/09/30 09:21:50;;;;;;;7.10;6.30;;;;;;;22.54;64.80;95767.56;5113211;27;20076;-46
2022/09/30 09:24:21;;;;;;;7.85;5.25;;;;;;;22.72;65.52;95761.22;5103882;27;20079;-47
2022/09/30 09:26:50;;;;;;;6.28;5.18;;;;;;;22.75;61.59;95758.88;5106896;27;20070;-48
2022/09/30 09:29:37;;;;;;;6.47;5.78;;;;;;;22.71;64.32;95770.31;5118972;27;20078;-50
2022/09/30 09:32:12;;;;;;;36.70;21.45;;;;;;;22.13;65.21;95779.28;5103242;28;20047;-54
2022/09/30 09:34:41;;;;;;;22.17;17.92;;;;;;;22.70;62.19;95785.63;5116590;27;20076;-50
2022/09/30 09:37:17;;;;;;;8.43;7.53;;;;;;;22.70;60.89;95782.13;5100155;27;20075;-47
2022/09/30 09:39:58;;;;;;;8.15;5.45;;;;;;;22.74;60.92;95780.59;5112391;28;20811;-48
2022/09/30 09:42:40;;;;;;;7.75;5.22;;;;;;;21.47;69.60;95786.53;5120433;27;20079;-48
2022/09/30 09:45:18;;;;;;;5.30;4.55;;;;;;;22.86;61.38;95772.50;5127151;27;20047;-47
2022/09/30 09:47:51;;;;;;;8.65;7.82;;;;;;;22.62;60.17;95771.75;5111211;28;20075;-57
2022/09/30 09:50:24;;;;;;;6.32;5.75;;;;;;;23.02;58.20;95770.94;5110239;27;20502;-53
2022/09/30 09:53:02;;;;;;;11.80;10.55;;;;;;;23.45;56.80;95767.72;5115395;27;20054;-45
2022/09/30 09:55:30;;;;;;;5.45;4.90;;;;;;;21.15;74.51;95785.94;5128986;27;20086;-49
2022/09/30 09:58:05;;;;;;;6.10;4.93;;;;;;;21.36;80.05;95777.41;5108596;28;20079;-47
2022/09/30 10:03:27;;;;;;;;;;;;;;;21.87;71.31;95783.22;5113115;28;20093;-48
2022/09/30 10:06:00;;;;;;;;;;;;;;;22.46;67.59;95781.34;5112640;28;19962;-48
2022/09/30 10:08:30;;;;;;;5.88;5.07;;;;;;;21.81;73.66;95785.75;5112555;28;19989;-51
2022/09/30 10:11:00;;;;;;;5.95;4.30;;;;;;;21.77;73.58;95779.22;5115005;28;20098;-51
2022/09/30 10:13:31;;;;;;;7.28;5.40;;;;;;;20.99;81.50;95790.91;5108823;28;20079;-51
2022/09/30 10:16:01;;;;;;;5.13;4.35;;;;;;;21.47;73.95;95779.31;5110361;28;20082;-46
2022/09/30 10:18:32;;;;;;;5.63;4.80;;;;;;;22.37;66.93;95778.22;5115123;28;20114;-47
2022/09/30 10:21:03;;;;;;;7.07;5.95;;;;;;;23.61;63.26;95766.13;5110208;28;20477;-48
2022/09/30 10:23:33;;;;;;;6.82;4.85;;;;;;;22.69;67.92;95770.56;5126033;28;20082;-51
2022/09/30 10:26:03;;;;;;;;;;;;;;;22.92;62.50;95774.25;5120690;28;20087;-48
2022/09/30 10:28:34;;;;;;;7.75;3.85;;;;;;;23.20;58.80;95778.84;5115022;28;19954;-55
2022/09/30 10:31:06;;;;;;;5.90;4.45;;;;;;;23.07;58.46;95779.94;5113165;28;20569;-48
2022/09/30 10:33:40;;;;;;;4.93;4.35;;;;;;;22.93;56.92;95776.72;5119474;28;20078;-49
2022/09/30 10:36:11;;;;;;;6.43;4.15;;;;;;;21.82;71.20;95781.25;5115700;28;20082;-55
2022/09/30 10:38:57;;;;;;;4.78;4.20;;;;;;;20.84;81.96;95798.50;5108850;28;20075;-50
2022/09/30 10:41:32;;;;;;;4.70;4.13;;;;;;;20.87;81.34;95798.03;5111848;28;20080;-51
2022/09/30 10:44:02;;;;;;;4.50;4.10;;;;;;;21.36;77.44;95781.94;5114772;28;20083;-52
2022/09/30 10:46:35;;;;;;;4.25;3.85;;;;;;;21.74;69.81;95781.56;5117165;28;20087;-46
2022/09/30 10:49:09;;;;;;;5.30;4.30;;;;;;;20.13;92.86;95799.84;5123843;28;20079;-49
2022/09/30 10:51:37;;;;;;;6.60;5.90;;;;;;;20.78;85.93;95807.44;5122028;28;20071;-48
2022/09/30 10:54:06;;;;;;;4.60;4.20;;;;;;;21.57;71.21;95794.81;5121079;27;20075;-49
2022/09/30 10:56:37;;;;;;;5.75;4.35;;;;;;;20.58;85.13;95811.19;5118759;27;20435;-50
2022/09/30 10:59:18;;;;;;;5.53;4.57;;;;;;;21.82;69.90;95786.59;5121813;27;20075;-48
2022/09/30 11:01:51;;;;;;;6.18;4.80;;;;;;;22.38;65.16;95792.47;5107773;27;20294;-51
2022/09/30 11:04:29;;;;;;;4.90;4.40;;;;;;;21.74;69.85;95803.84;5118631;27;20071;-46
2022/09/30 11:07:05;;;;;;;5.05;4.10;;;;;;;21.90;69.31;95791.63;5120879;27;20067;-52
2022/09/30 11:09:35;;;;;;;5.60;4.10;;;;;;;22.51;64.97;95797.59;5118233;27;20079;-50
2022/09/30 11:12:11;;;;;;;4.80;4.00;;;;;;;20.79;75.79;95803.72;5102984;27;20082;-49
2022/09/30 11:14:44;;;;;;;6.05;4.28;;;;;;;21.96;68.71;95790.69;5121468;27;20117;-52
2022/09/30 11:17:32;;;;;;;14.00;9.23;;;;;;;22.63;65.61;95790.31;5124036;27;20075;-47
2022/09/30 11:20:10;;;;;;;6.25;4.68;;;;;;;24.01;55.84;95792.09;5112964;27;20113;-48
2022/09/30 11:22:45;;;;;;;5.35;4.20;;;;;;;23.09;54.90;95803.91;5113006;27;20063;-47
2022/09/30 11:25:15;;;;;;;11.15;9.05;;;;;;;23.69;55.03;95806.94;5118485;27;20447;-47
2022/09/30 11:28:02;;;;;;;8.45;6.05;;;;;;;24.43;49.94;95814.03;5113346;27;20055;-52
2022/09/30 11:30:37;;;;;;;5.15;4.10;;;;;;;22.73;56.62;95819.28;5120159;27;20083;-54
2022/09/30 11:33:23;;;;;;;4.63;4.13;;;;;;;24.54;50.09;95807.72;5118989;27;20070;-50
2022/09/30 11:35:55;;;;;;;5.35;4.60;;;;;;;23.17;55.99;95808.91;5128412;27;20083;-48
2022/09/30 11:38:35;;;;;;;5.03;4.10;;;;;;;25.34;47.24;95802.78;5115789;27;20079;-46
2022/09/30 11:41:08;;;;;;;4.68;4.10;;;;;;;22.56;57.57;95816.50;5123256;27;20075;-42
2022/09/30 11:43:41;;;;;;;6.93;4.32;;;;;;;23.72;55.32;95813.72;5115721;27;20086;-43
2022/09/30 11:46:30;;;;;;;5.95;4.40;;;;;;;22.78;59.74;95815.88;5118498;27;20086;-43